sensor_id;sensor_type;location;lat;lon;timestamp;P1;durP1;ratioP1;P2;durP2;ratioP2
20076;SDS011;12348;42.710;23.378;2023-03-23T00:00:05;63.20;;;27.10;;
20076;SDS011;12348;42.710;23.378;2023-03-23T00:02:33;65.03;;;28.83;;
20076;SDS011;12348;42.710;23.378;2023-03-23T00:05:00;62.17;;;28.97;;
20076;SDS011;12348;42.710;23.378;2023-03-23T00:07:28;57.60;;;27.70;;
20076;SDS011;12348;42.710;23.378;2023-03-23T00:09:55;57.30;;;27.50;;
20076;SDS011;12348;42.710;23.378;2023-03-23T00:12:24;60.43;;;27.50;;
20076;SDS011;12348;42.710;23.378;2023-03-23T00:14:57;62.27;;;29.63;;
20076;SDS011;12348;42.710;23.378;2023-03-23T00:17:25;60.00;;;26.80;;
20076;SDS011;12348;42.710;23.378;2023-03-23T00:19:52;61.17;;;27.47;;
20076;SDS011;12348;42.710;23.378;2023-03-23T00:22:20;61.20;;;27.33;;
20076;SDS011;12348;42.710;23.378;2023-03-23T00:24:50;61.93;;;26.23;;
20076;SDS011;12348;42.710;23.378;2023-03-23T00:27:18;51.80;;;24.00;;
20076;SDS011;12348;42.710;23.378;2023-03-23T00:29:48;46.23;;;23.97;;
20076;SDS011;12348;42.710;23.378;2023-03-23T00:32:18;58.57;;;24.17;;
20076;SDS011;12348;42.710;23.378;2023-03-23T00:34:45;54.43;;;22.47;;
20076;SDS011;12348;42.710;23.378;2023-03-23T00:37:14;49.57;;;23.97;;
20076;SDS011;12348;42.710;23.378;2023-03-23T00:39:42;49.73;;;24.70;;
20076;SDS011;12348;42.710;23.378;2023-03-23T00:42:11;48.67;;;22.20;;
20076;SDS011;12348;42.710;23.378;2023-03-23T00:44:39;43.53;;;18.83;;
20076;SDS011;12348;42.710;23.378;2023-03-23T00:47:07;39.87;;;19.30;;
20076;SDS011;12348;42.710;23.378;2023-03-23T00:49:35;41.67;;;19.67;;
20076;SDS011;12348;42.710;23.378;2023-03-23T00:52:03;42.50;;;20.27;;
20076;SDS011;12348;42.710;23.378;2023-03-23T00:54:31;38.63;;;19.53;;
20076;SDS011;12348;42.710;23.378;2023-03-23T00:56:58;44.13;;;19.67;;
20076;SDS011;12348;42.710;23.378;2023-03-23T00:59:25;45.47;;;19.40;;
20076;SDS011;12348;42.710;23.378;2023-03-23T01:01:52;39.73;;;19.93;;
20076;SDS011;12348;42.710;23.378;2023-03-23T01:04:20;48.00;;;20.43;;
20076;SDS011;12348;42.710;23.378;2023-03-23T01:06:48;39.50;;;20.63;;
20076;SDS011;12348;42.710;23.378;2023-03-23T01:09:16;41.90;;;19.00;;
20076;SDS011;12348;42.710;23.378;2023-03-23T01:11:44;42.47;;;19.23;;
20076;SDS011;12348;42.710;23.378;2023-03-23T01:14:12;46.43;;;20.93;;
20076;SDS011;12348;42.710;23.378;2023-03-23T01:16:41;39.87;;;20.70;;
20076;SDS011;12348;42.710;23.378;2023-03-23T01:19:09;52.50;;;24.17;;
20076;SDS011;12348;42.710;23.378;2023-03-23T01:21:37;55.43;;;26.43;;
20076;SDS011;12348;42.710;23.378;2023-03-23T01:24:04;72.00;;;29.03;;
20076;SDS011;12348;42.710;23.378;2023-03-23T01:26:31;53.03;;;28.63;;
20076;SDS011;12348;42.710;23.378;2023-03-23T01:28:58;69.10;;;31.00;;
20076;SDS011;12348;42.710;23.378;2023-03-23T01:31:25;65.80;;;28.80;;
20076;SDS011;12348;42.710;23.378;2023-03-23T01:33:52;63.07;;;30.90;;
20076;SDS011;12348;42.710;23.378;2023-03-23T01:36:21;66.07;;;30.83;;
20076;SDS011;12348;42.710;23.378;2023-03-23T01:38:51;76.57;;;31.03;;
20076;SDS011;12348;42.710;23.378;2023-03-23T01:41:20;84.97;;;34.33;;
20076;SDS011;12348;42.710;23.378;2023-03-23T01:43:58;71.87;;;33.20;;
20076;SDS011;12348;42.710;23.378;2023-03-23T01:46:28;63.53;;;29.17;;
20076;SDS011;12348;42.710;23.378;2023-03-23T01:48:57;73.10;;;33.87;;
20076;SDS011;12348;42.710;23.378;2023-03-23T01:51:31;62.63;;;31.47;;
20076;SDS011;12348;42.710;23.378;2023-03-23T01:54:02;74.83;;;31.60;;
20076;SDS011;12348;42.710;23.378;2023-03-23T01:56:33;70.13;;;29.63;;
20076;SDS011;12348;42.710;23.378;2023-03-23T01:59:06;64.60;;;30.87;;
20076;SDS011;12348;42.710;23.378;2023-03-23T02:01:34;64.07;;;27.40;;
20076;SDS011;12348;42.710;23.378;2023-03-23T02:04:03;49.93;;;23.47;;
20076;SDS011;12348;42.710;23.378;2023-03-23T02:06:32;52.10;;;24.47;;
20076;SDS011;12348;42.710;23.378;2023-03-23T02:09:01;51.57;;;22.50;;
20076;SDS011;12348;42.710;23.378;2023-03-23T02:11:28;49.73;;;22.27;;
20076;SDS011;12348;42.710;23.378;2023-03-23T02:13:55;46.40;;;21.57;;
20076;SDS011;12348;42.710;23.378;2023-03-23T02:16:26;47.17;;;20.00;;
20076;SDS011;12348;42.710;23.378;2023-03-23T02:19:03;39.03;;;19.33;;
20076;SDS011;12348;42.710;23.378;2023-03-23T02:21:47;45.27;;;20.10;;
20076;SDS011;12348;42.710;23.378;2023-03-23T02:27:33;36.37;;;17.73;;
20076;SDS011;12348;42.710;23.378;2023-03-23T02:30:26;38.17;;;19.47;;
20076;SDS011;12348;42.710;23.378;2023-03-23T02:36:01;36.93;;;18.00;;
20076;SDS011;12348;42.710;23.378;2023-03-23T02:38:37;39.17;;;19.37;;
20076;SDS011;12348;42.710;23.378;2023-03-23T02:41:09;41.43;;;17.97;;
20076;SDS011;12348;42.710;23.378;2023-03-23T02:43:40;35.33;;;16.93;;
20076;SDS011;12348;42.710;23.378;2023-03-23T02:46:10;39.10;;;18.73;;
20076;SDS011;12348;42.710;23.378;2023-03-23T02:48:40;46.93;;;15.57;;
20076;SDS011;12348;42.710;23.378;2023-03-23T02:51:09;31.67;;;14.03;;
20076;SDS011;12348;42.710;23.378;2023-03-23T02:53:39;37.37;;;16.87;;
20076;SDS011;12348;42.710;23.378;2023-03-23T02:56:09;38.77;;;14.83;;
20076;SDS011;12348;42.710;23.378;2023-03-23T02:58:38;38.27;;;15.67;;
20076;SDS011;12348;42.710;23.378;2023-03-23T03:04:18;23.47;;;12.87;;
20076;SDS011;12348;42.710;23.378;2023-03-23T03:06:49;31.23;;;13.50;;
20076;SDS011;12348;42.710;23.378;2023-03-23T03:09:29;24.97;;;11.57;;
20076;SDS011;12348;42.710;23.378;2023-03-23T03:12:04;20.77;;;10.60;;
20076;SDS011;12348;42.710;23.378;2023-03-23T03:14:36;51.00;;;14.00;;
20076;SDS011;12348;42.710;23.378;2023-03-23T03:17:07;46.67;;;12.47;;
20076;SDS011;12348;42.710;23.378;2023-03-23T03:19:42;24.27;;;12.30;;
20076;SDS011;12348;42.710;23.378;2023-03-23T03:22:12;28.07;;;12.50;;
20076;SDS011;12348;42.710;23.378;2023-03-23T03:24:40;23.07;;;13.33;;
20076;SDS011;12348;42.710;23.378;2023-03-23T03:27:10;36.33;;;12.57;;
20076;SDS011;12348;42.710;23.378;2023-03-23T03:29:40;22.63;;;14.13;;
20076;SDS011;12348;42.710;23.378;2023-03-23T03:32:08;27.13;;;12.03;;
20076;SDS011;12348;42.710;23.378;2023-03-23T03:34:39;22.27;;;12.47;;
20076;SDS011;12348;42.710;23.378;2023-03-23T03:37:07;47.87;;;15.93;;
20076;SDS011;12348;42.710;23.378;2023-03-23T03:39:37;40.63;;;19.40;;
20076;SDS011;12348;42.710;23.378;2023-03-23T03:42:05;40.77;;;18.73;;
20076;SDS011;12348;42.710;23.378;2023-03-23T03:44:32;30.50;;;17.13;;
20076;SDS011;12348;42.710;23.378;2023-03-23T03:46:59;35.87;;;15.13;;
20076;SDS011;12348;42.710;23.378;2023-03-23T03:49:26;31.60;;;14.77;;
20076;SDS011;12348;42.710;23.378;2023-03-23T03:51:53;32.23;;;14.93;;
20076;SDS011;12348;42.710;23.378;2023-03-23T03:54:21;36.63;;;15.37;;
20076;SDS011;12348;42.710;23.378;2023-03-23T03:56:48;35.07;;;17.67;;
20076;SDS011;12348;42.710;23.378;2023-03-23T03:59:16;39.67;;;16.70;;
20076;SDS011;12348;42.710;23.378;2023-03-23T04:01:43;36.20;;;15.27;;
20076;SDS011;12348;42.710;23.378;2023-03-23T04:04:10;43.57;;;18.27;;
20076;SDS011;12348;42.710;23.378;2023-03-23T04:06:37;38.00;;;17.00;;
20076;SDS011;12348;42.710;23.378;2023-03-23T04:09:04;56.70;;;29.23;;
20076;SDS011;12348;42.710;23.378;2023-03-23T04:11:34;43.93;;;20.50;;
20076;SDS011;12348;42.710;23.378;2023-03-23T04:14:03;55.00;;;20.63;;
20076;SDS011;12348;42.710;23.378;2023-03-23T04:16:30;63.87;;;21.57;;
20076;SDS011;12348;42.710;23.378;2023-03-23T04:18:59;48.73;;;21.20;;
20076;SDS011;12348;42.710;23.378;2023-03-23T04:21:26;54.47;;;23.83;;
20076;SDS011;12348;42.710;23.378;2023-03-23T04:23:54;44.63;;;21.97;;
20076;SDS011;12348;42.710;23.378;2023-03-23T04:26:21;42.80;;;19.47;;
20076;SDS011;12348;42.710;23.378;2023-03-23T04:28:49;36.70;;;17.27;;
20076;SDS011;12348;42.710;23.378;2023-03-23T04:31:17;36.07;;;17.70;;
20076;SDS011;12348;42.710;23.378;2023-03-23T04:33:44;30.07;;;15.77;;
20076;SDS011;12348;42.710;23.378;2023-03-23T04:36:11;34.27;;;15.83;;
20076;SDS011;12348;42.710;23.378;2023-03-23T04:38:41;38.10;;;16.87;;
20076;SDS011;12348;42.710;23.378;2023-03-23T04:41:08;33.50;;;16.33;;
20076;SDS011;12348;42.710;23.378;2023-03-23T04:43:35;36.97;;;15.23;;
20076;SDS011;12348;42.710;23.378;2023-03-23T04:46:07;32.70;;;16.47;;
20076;SDS011;12348;42.710;23.378;2023-03-23T04:48:35;37.40;;;17.60;;
20076;SDS011;12348;42.710;23.378;2023-03-23T04:51:04;28.43;;;14.93;;
20076;SDS011;12348;42.710;23.378;2023-03-23T04:53:31;27.80;;;15.70;;
20076;SDS011;12348;42.710;23.378;2023-03-23T04:55:58;38.30;;;15.60;;
20076;SDS011;12348;42.710;23.378;2023-03-23T04:58:26;33.93;;;16.97;;
20076;SDS011;12348;42.710;23.378;2023-03-23T05:00:54;38.97;;;18.37;;
20076;SDS011;12348;42.710;23.378;2023-03-23T05:03:23;29.03;;;16.00;;
20076;SDS011;12348;42.710;23.378;2023-03-23T05:05:50;36.07;;;17.17;;
20076;SDS011;12348;42.710;23.378;2023-03-23T05:08:18;40.23;;;19.87;;
20076;SDS011;12348;42.710;23.378;2023-03-23T05:10:55;40.50;;;17.77;;
20076;SDS011;12348;42.710;23.378;2023-03-23T05:13:23;39.33;;;18.20;;
20076;SDS011;12348;42.710;23.378;2023-03-23T05:15:50;34.10;;;17.50;;
20076;SDS011;12348;42.710;23.378;2023-03-23T05:18:16;37.43;;;16.57;;
20076;SDS011;12348;42.710;23.378;2023-03-23T05:20:46;32.80;;;18.47;;
20076;SDS011;12348;42.710;23.378;2023-03-23T05:23:14;35.77;;;20.47;;
20076;SDS011;12348;42.710;23.378;2023-03-23T05:25:41;45.23;;;20.57;;
20076;SDS011;12348;42.710;23.378;2023-03-23T05:28:08;50.27;;;21.37;;
20076;SDS011;12348;42.710;23.378;2023-03-23T05:30:37;49.47;;;21.00;;
20076;SDS011;12348;42.710;23.378;2023-03-23T05:33:05;54.03;;;25.00;;
20076;SDS011;12348;42.710;23.378;2023-03-23T05:35:32;52.23;;;26.73;;
20076;SDS011;12348;42.710;23.378;2023-03-23T05:38:00;57.70;;;25.67;;
20076;SDS011;12348;42.710;23.378;2023-03-23T05:40:28;73.57;;;28.93;;
20076;SDS011;12348;42.710;23.378;2023-03-23T05:42:55;59.90;;;28.27;;
20076;SDS011;12348;42.710;23.378;2023-03-23T05:45:24;57.27;;;25.80;;
20076;SDS011;12348;42.710;23.378;2023-03-23T05:47:51;59.57;;;29.07;;
20076;SDS011;12348;42.710;23.378;2023-03-23T05:50:18;59.50;;;27.10;;
20076;SDS011;12348;42.710;23.378;2023-03-23T05:52:45;58.23;;;25.67;;
20076;SDS011;12348;42.710;23.378;2023-03-23T05:55:14;50.73;;;25.10;;
20076;SDS011;12348;42.710;23.378;2023-03-23T05:57:40;55.90;;;27.10;;
20076;SDS011;12348;42.710;23.378;2023-03-23T06:00:08;57.70;;;27.47;;
20076;SDS011;12348;42.710;23.378;2023-03-23T06:02:44;56.53;;;25.63;;
20076;SDS011;12348;42.710;23.378;2023-03-23T06:05:12;57.17;;;26.47;;
20076;SDS011;12348;42.710;23.378;2023-03-23T06:07:39;57.83;;;28.93;;
20076;SDS011;12348;42.710;23.378;2023-03-23T06:10:06;53.60;;;27.57;;
20076;SDS011;12348;42.710;23.378;2023-03-23T06:12:35;53.07;;;26.47;;
20076;SDS011;12348;42.710;23.378;2023-03-23T06:15:02;48.77;;;24.50;;
20076;SDS011;12348;42.710;23.378;2023-03-23T06:17:31;48.30;;;24.33;;
20076;SDS011;12348;42.710;23.378;2023-03-23T06:19:58;42.70;;;22.80;;
20076;SDS011;12348;42.710;23.378;2023-03-23T06:22:25;42.17;;;21.83;;
20076;SDS011;12348;42.710;23.378;2023-03-23T06:24:53;45.83;;;23.67;;
20076;SDS011;12348;42.710;23.378;2023-03-23T06:27:22;58.63;;;24.70;;
20076;SDS011;12348;42.710;23.378;2023-03-23T06:29:50;52.70;;;26.73;;
20076;SDS011;12348;42.710;23.378;2023-03-23T06:32:17;42.90;;;23.47;;
20076;SDS011;12348;42.710;23.378;2023-03-23T06:34:44;43.43;;;22.20;;
20076;SDS011;12348;42.710;23.378;2023-03-23T06:37:12;39.87;;;20.27;;
20076;SDS011;12348;42.710;23.378;2023-03-23T06:39:40;34.17;;;19.60;;
20076;SDS011;12348;42.710;23.378;2023-03-23T06:42:08;35.40;;;18.63;;
20076;SDS011;12348;42.710;23.378;2023-03-23T06:44:36;37.57;;;18.43;;
20076;SDS011;12348;42.710;23.378;2023-03-23T06:47:04;30.97;;;17.17;;
20076;SDS011;12348;42.710;23.378;2023-03-23T06:49:32;30.73;;;17.40;;
20076;SDS011;12348;42.710;23.378;2023-03-23T06:51:59;36.57;;;18.03;;
20076;SDS011;12348;42.710;23.378;2023-03-23T06:54:27;27.20;;;15.37;;
20076;SDS011;12348;42.710;23.378;2023-03-23T06:56:53;31.80;;;17.57;;
20076;SDS011;12348;42.710;23.378;2023-03-23T06:59:20;34.87;;;16.20;;
20076;SDS011;12348;42.710;23.378;2023-03-23T07:01:47;28.03;;;15.63;;
20076;SDS011;12348;42.710;23.378;2023-03-23T07:04:16;24.93;;;14.40;;
20076;SDS011;12348;42.710;23.378;2023-03-23T07:06:42;26.43;;;14.17;;
20076;SDS011;12348;42.710;23.378;2023-03-23T07:09:09;20.63;;;13.20;;
20076;SDS011;12348;42.710;23.378;2023-03-23T07:11:36;20.73;;;13.03;;
20076;SDS011;12348;42.710;23.378;2023-03-23T07:14:03;26.97;;;15.23;;
20076;SDS011;12348;42.710;23.378;2023-03-23T07:16:30;24.63;;;14.40;;
20076;SDS011;12348;42.710;23.378;2023-03-23T07:18:57;23.53;;;14.70;;
20076;SDS011;12348;42.710;23.378;2023-03-23T07:21:26;30.90;;;15.77;;
20076;SDS011;12348;42.710;23.378;2023-03-23T07:23:53;26.97;;;15.40;;
20076;SDS011;12348;42.710;23.378;2023-03-23T07:26:20;26.67;;;14.60;;
20076;SDS011;12348;42.710;23.378;2023-03-23T07:28:48;27.07;;;14.50;;
20076;SDS011;12348;42.710;23.378;2023-03-23T07:31:15;25.70;;;14.77;;
20076;SDS011;12348;42.710;23.378;2023-03-23T07:33:42;29.97;;;14.47;;
20076;SDS011;12348;42.710;23.378;2023-03-23T07:36:10;21.13;;;13.67;;
20076;SDS011;12348;42.710;23.378;2023-03-23T07:38:39;23.70;;;14.63;;
20076;SDS011;12348;42.710;23.378;2023-03-23T07:41:06;27.77;;;14.90;;
20076;SDS011;12348;42.710;23.378;2023-03-23T07:43:33;34.40;;;18.33;;
20076;SDS011;12348;42.710;23.378;2023-03-23T07:46:00;30.10;;;17.77;;
20076;SDS011;12348;42.710;23.378;2023-03-23T07:48:27;29.10;;;15.37;;
20076;SDS011;12348;42.710;23.378;2023-03-23T07:50:54;31.90;;;16.93;;
20076;SDS011;12348;42.710;23.378;2023-03-23T07:53:20;25.37;;;15.27;;
20076;SDS011;12348;42.710;23.378;2023-03-23T07:55:49;25.60;;;15.30;;
20076;SDS011;12348;42.710;23.378;2023-03-23T07:58:17;23.33;;;14.50;;
20076;SDS011;12348;42.710;23.378;2023-03-23T08:00:44;19.43;;;13.57;;
20076;SDS011;12348;42.710;23.378;2023-03-23T08:03:13;21.13;;;14.63;;
20076;SDS011;12348;42.710;23.378;2023-03-23T08:05:40;22.40;;;13.60;;
20076;SDS011;12348;42.710;23.378;2023-03-23T08:08:08;25.87;;;14.77;;
20076;SDS011;12348;42.710;23.378;2023-03-23T08:10:35;23.83;;;13.70;;
20076;SDS011;12348;42.710;23.378;2023-03-23T08:13:04;23.73;;;12.53;;
20076;SDS011;12348;42.710;23.378;2023-03-23T08:15:31;21.30;;;13.13;;
20076;SDS011;12348;42.710;23.378;2023-03-23T08:17:59;22.50;;;13.57;;
20076;SDS011;12348;42.710;23.378;2023-03-23T08:20:27;21.47;;;14.03;;
20076;SDS011;12348;42.710;23.378;2023-03-23T08:22:56;25.07;;;15.40;;
20076;SDS011;12348;42.710;23.378;2023-03-23T08:25:23;26.27;;;14.73;;
20076;SDS011;12348;42.710;23.378;2023-03-23T08:27:51;25.23;;;14.30;;
20076;SDS011;12348;42.710;23.378;2023-03-23T08:30:20;21.43;;;13.40;;
20076;SDS011;12348;42.710;23.378;2023-03-23T08:32:47;25.50;;;15.47;;
20076;SDS011;12348;42.710;23.378;2023-03-23T08:35:15;23.20;;;14.30;;
20076;SDS011;12348;42.710;23.378;2023-03-23T08:37:42;25.07;;;14.57;;
20076;SDS011;12348;42.710;23.378;2023-03-23T08:40:11;17.87;;;11.13;;
20076;SDS011;12348;42.710;23.378;2023-03-23T08:42:40;16.33;;;10.37;;
20076;SDS011;12348;42.710;23.378;2023-03-23T08:45:12;17.87;;;12.77;;
20076;SDS011;12348;42.710;23.378;2023-03-23T08:47:42;27.93;;;14.60;;
20076;SDS011;12348;42.710;23.378;2023-03-23T08:50:10;24.13;;;11.70;;
20076;SDS011;12348;42.710;23.378;2023-03-23T08:52:38;33.97;;;18.67;;
20076;SDS011;12348;42.710;23.378;2023-03-23T08:55:06;16.00;;;10.30;;
20076;SDS011;12348;42.710;23.378;2023-03-23T08:57:35;23.17;;;14.37;;
20076;SDS011;12348;42.710;23.378;2023-03-23T09:00:03;13.50;;;8.43;;
20076;SDS011;12348;42.710;23.378;2023-03-23T09:02:40;14.10;;;7.87;;
20076;SDS011;12348;42.710;23.378;2023-03-23T09:05:09;14.73;;;9.20;;
20076;SDS011;12348;42.710;23.378;2023-03-23T09:07:37;19.77;;;9.80;;
20076;SDS011;12348;42.710;23.378;2023-03-23T09:10:05;8.43;;;5.67;;
20076;SDS011;12348;42.710;23.378;2023-03-23T09:12:33;8.40;;;5.70;;
20076;SDS011;12348;42.710;23.378;2023-03-23T09:15:01;13.00;;;6.50;;
20076;SDS011;12348;42.710;23.378;2023-03-23T09:17:33;11.97;;;7.50;;
20076;SDS011;12348;42.710;23.378;2023-03-23T09:20:00;9.50;;;7.07;;
20076;SDS011;12348;42.710;23.378;2023-03-23T09:22:30;11.03;;;5.67;;
20076;SDS011;12348;42.710;23.378;2023-03-23T09:24:57;9.90;;;6.80;;
20076;SDS011;12348;42.710;23.378;2023-03-23T09:27:24;9.20;;;5.83;;
20076;SDS011;12348;42.710;23.378;2023-03-23T09:29:51;7.97;;;5.17;;
20076;SDS011;12348;42.710;23.378;2023-03-23T09:32:18;6.93;;;5.00;;
20076;SDS011;12348;42.710;23.378;2023-03-23T09:34:47;7.87;;;5.70;;
20076;SDS011;12348;42.710;23.378;2023-03-23T09:37:14;8.10;;;5.67;;
20076;SDS011;12348;42.710;23.378;2023-03-23T09:39:43;11.77;;;6.73;;
20076;SDS011;12348;42.710;23.378;2023-03-23T09:42:17;6.97;;;4.50;;
20076;SDS011;12348;42.710;23.378;2023-03-23T09:44:57;9.00;;;5.37;;
20076;SDS011;12348;42.710;23.378;2023-03-23T09:47:37;8.00;;;5.43;;
20076;SDS011;12348;42.710;23.378;2023-03-23T09:50:12;12.13;;;5.80;;
20076;SDS011;12348;42.710;23.378;2023-03-23T09:52:43;9.53;;;6.03;;
20076;SDS011;12348;42.710;23.378;2023-03-23T09:55:16;9.63;;;6.17;;
20076;SDS011;12348;42.710;23.378;2023-03-23T09:57:45;11.73;;;6.20;;
20076;SDS011;12348;42.710;23.378;2023-03-23T10:00:19;6.23;;;4.60;;
20076;SDS011;12348;42.710;23.378;2023-03-23T10:02:52;8.77;;;5.60;;
20076;SDS011;12348;42.710;23.378;2023-03-23T10:05:27;10.53;;;5.73;;
20076;SDS011;12348;42.710;23.378;2023-03-23T10:07:57;15.80;;;6.53;;
20076;SDS011;12348;42.710;23.378;2023-03-23T10:10:29;10.90;;;6.77;;
20076;SDS011;12348;42.710;23.378;2023-03-23T10:13:04;9.83;;;6.23;;
20076;SDS011;12348;42.710;23.378;2023-03-23T10:15:38;12.10;;;6.53;;
20076;SDS011;12348;42.710;23.378;2023-03-23T10:18:09;11.73;;;5.53;;
20076;SDS011;12348;42.710;23.378;2023-03-23T10:20:42;7.43;;;4.87;;
20076;SDS011;12348;42.710;23.378;2023-03-23T10:23:14;8.07;;;4.53;;
20076;SDS011;12348;42.710;23.378;2023-03-23T10:25:52;12.60;;;5.33;;
20076;SDS011;12348;42.710;23.378;2023-03-23T10:28:34;7.37;;;5.13;;
20076;SDS011;12348;42.710;23.378;2023-03-23T10:31:03;7.63;;;4.97;;
20076;SDS011;12348;42.710;23.378;2023-03-23T10:33:34;6.53;;;4.93;;
20076;SDS011;12348;42.710;23.378;2023-03-23T10:36:06;10.10;;;6.03;;
20076;SDS011;12348;42.710;23.378;2023-03-23T10:38:36;10.13;;;5.97;;
20076;SDS011;12348;42.710;23.378;2023-03-23T10:41:09;17.23;;;10.63;;
20076;SDS011;12348;42.710;23.378;2023-03-23T10:43:38;8.13;;;5.43;;
20076;SDS011;12348;42.710;23.378;2023-03-23T10:46:10;12.67;;;5.87;;
20076;SDS011;12348;42.710;23.378;2023-03-23T10:48:47;12.10;;;5.37;;
20076;SDS011;12348;42.710;23.378;2023-03-23T10:51:18;9.77;;;6.00;;
20076;SDS011;12348;42.710;23.378;2023-03-23T10:53:49;10.30;;;6.00;;
20076;SDS011;12348;42.710;23.378;2023-03-23T10:56:23;12.20;;;6.07;;
20076;SDS011;12348;42.710;23.378;2023-03-23T10:58:52;12.83;;;6.03;;
20076;SDS011;12348;42.710;23.378;2023-03-23T11:01:20;9.13;;;5.90;;
20076;SDS011;12348;42.710;23.378;2023-03-23T11:03:56;10.93;;;5.90;;
20076;SDS011;12348;42.710;23.378;2023-03-23T11:06:26;8.70;;;4.97;;
20076;SDS011;12348;42.710;23.378;2023-03-23T11:08:55;10.60;;;5.77;;
20076;SDS011;12348;42.710;23.378;2023-03-23T11:11:26;10.73;;;6.43;;
20076;SDS011;12348;42.710;23.378;2023-03-23T11:13:58;6.20;;;4.60;;
20076;SDS011;12348;42.710;23.378;2023-03-23T11:16:27;10.43;;;4.37;;
20076;SDS011;12348;42.710;23.378;2023-03-23T11:18:56;10.77;;;6.40;;
20076;SDS011;12348;42.710;23.378;2023-03-23T11:21:23;9.23;;;5.70;;
20076;SDS011;12348;42.710;23.378;2023-03-23T11:23:53;7.63;;;4.47;;
20076;SDS011;12348;42.710;23.378;2023-03-23T11:26:26;9.73;;;5.33;;
20076;SDS011;12348;42.710;23.378;2023-03-23T11:28:57;10.47;;;6.20;;
20076;SDS011;12348;42.710;23.378;2023-03-23T11:31:30;13.60;;;7.30;;
20076;SDS011;12348;42.710;23.378;2023-03-23T11:33:59;5.90;;;4.20;;
20076;SDS011;12348;42.710;23.378;2023-03-23T11:36:30;9.83;;;5.10;;
20076;SDS011;12348;42.710;23.378;2023-03-23T11:38:59;9.00;;;4.73;;
20076;SDS011;12348;42.710;23.378;2023-03-23T11:41:31;8.20;;;4.73;;
20076;SDS011;12348;42.710;23.378;2023-03-23T11:44:03;7.83;;;5.47;;
20076;SDS011;12348;42.710;23.378;2023-03-23T11:46:38;10.53;;;5.60;;
20076;SDS011;12348;42.710;23.378;2023-03-23T11:49:12;7.07;;;4.67;;
20076;SDS011;12348;42.710;23.378;2023-03-23T11:51:45;9.57;;;4.93;;
20076;SDS011;12348;42.710;23.378;2023-03-23T11:54:15;7.73;;;5.07;;
20076;SDS011;12348;42.710;23.378;2023-03-23T11:56:48;7.37;;;4.80;;
20076;SDS011;12348;42.710;23.378;2023-03-23T11:59:15;7.03;;;4.73;;
20076;SDS011;12348;42.710;23.378;2023-03-23T12:01:48;7.63;;;3.90;;
20076;SDS011;12348;42.710;23.378;2023-03-23T12:04:23;9.63;;;4.97;;
20076;SDS011;12348;42.710;23.378;2023-03-23T12:07:02;7.37;;;4.60;;
20076;SDS011;12348;42.710;23.378;2023-03-23T12:09:40;7.10;;;4.70;;
20076;SDS011;12348;42.710;23.378;2023-03-23T12:12:16;9.87;;;4.53;;
20076;SDS011;12348;42.710;23.378;2023-03-23T12:14:50;6.33;;;4.13;;
20076;SDS011;12348;42.710;23.378;2023-03-23T12:17:28;10.33;;;4.43;;
20076;SDS011;12348;42.710;23.378;2023-03-23T12:20:12;7.23;;;4.40;;
20076;SDS011;12348;42.710;23.378;2023-03-23T12:22:50;6.70;;;4.10;;
20076;SDS011;12348;42.710;23.378;2023-03-23T12:25:33;7.27;;;4.57;;
20076;SDS011;12348;42.710;23.378;2023-03-23T12:28:13;10.07;;;5.00;;
20076;SDS011;12348;42.710;23.378;2023-03-23T12:30:49;8.03;;;4.93;;
20076;SDS011;12348;42.710;23.378;2023-03-23T12:33:25;9.00;;;4.97;;
20076;SDS011;12348;42.710;23.378;2023-03-23T12:36:03;6.43;;;4.23;;
20076;SDS011;12348;42.710;23.378;2023-03-23T12:38:46;10.93;;;5.00;;
20076;SDS011;12348;42.710;23.378;2023-03-23T12:41:25;6.87;;;4.33;;
20076;SDS011;12348;42.710;23.378;2023-03-23T12:43:58;7.77;;;4.53;;
20076;SDS011;12348;42.710;23.378;2023-03-23T12:46:35;9.87;;;4.30;;
20076;SDS011;12348;42.710;23.378;2023-03-23T12:49:10;9.40;;;4.80;;
20076;SDS011;12348;42.710;23.378;2023-03-23T12:51:44;10.03;;;5.30;;
20076;SDS011;12348;42.710;23.378;2023-03-23T12:54:21;11.30;;;5.57;;
20076;SDS011;12348;42.710;23.378;2023-03-23T12:56:54;7.93;;;4.53;;
20076;SDS011;12348;42.710;23.378;2023-03-23T12:59:29;10.30;;;4.60;;
20076;SDS011;12348;42.710;23.378;2023-03-23T13:02:04;9.63;;;4.93;;
20076;SDS011;12348;42.710;23.378;2023-03-23T13:04:41;8.13;;;5.20;;
20076;SDS011;12348;42.710;23.378;2023-03-23T13:07:14;12.87;;;6.00;;
20076;SDS011;12348;42.710;23.378;2023-03-23T13:09:47;7.50;;;4.97;;
20076;SDS011;12348;42.710;23.378;2023-03-23T13:12:19;8.07;;;5.00;;
20076;SDS011;12348;42.710;23.378;2023-03-23T13:14:50;12.40;;;7.37;;
20076;SDS011;12348;42.710;23.378;2023-03-23T13:17:28;8.57;;;5.37;;
20076;SDS011;12348;42.710;23.378;2023-03-23T13:20:08;6.63;;;4.40;;
20076;SDS011;12348;42.710;23.378;2023-03-23T13:22:50;8.13;;;4.80;;
20076;SDS011;12348;42.710;23.378;2023-03-23T13:25:25;6.03;;;4.60;;
20076;SDS011;12348;42.710;23.378;2023-03-23T13:28:04;7.30;;;5.00;;
20076;SDS011;12348;42.710;23.378;2023-03-23T13:30:32;6.27;;;4.27;;
20076;SDS011;12348;42.710;23.378;2023-03-23T13:33:02;4.90;;;4.00;;
20076;SDS011;12348;42.710;23.378;2023-03-23T13:35:35;4.93;;;3.57;;
20076;SDS011;12348;42.710;23.378;2023-03-23T13:38:11;7.43;;;4.33;;
20076;SDS011;12348;42.710;23.378;2023-03-23T13:40:42;7.23;;;4.83;;
20076;SDS011;12348;42.710;23.378;2023-03-23T13:43:10;6.37;;;4.37;;
20076;SDS011;12348;42.710;23.378;2023-03-23T13:45:44;8.27;;;5.03;;
20076;SDS011;12348;42.710;23.378;2023-03-23T13:48:19;5.93;;;3.90;;
20076;SDS011;12348;42.710;23.378;2023-03-23T13:50:52;6.27;;;4.40;;
20076;SDS011;12348;42.710;23.378;2023-03-23T13:53:25;6.23;;;4.37;;
20076;SDS011;12348;42.710;23.378;2023-03-23T13:56:05;7.90;;;4.60;;
20076;SDS011;12348;42.710;23.378;2023-03-23T13:58:43;5.27;;;3.93;;
20076;SDS011;12348;42.710;23.378;2023-03-23T14:01:14;8.53;;;5.20;;
20076;SDS011;12348;42.710;23.378;2023-03-23T14:03:43;7.13;;;4.40;;
20076;SDS011;12348;42.710;23.378;2023-03-23T14:06:16;8.83;;;5.33;;
20076;SDS011;12348;42.710;23.378;2023-03-23T14:08:47;6.97;;;4.50;;
20076;SDS011;12348;42.710;23.378;2023-03-23T14:11:17;8.77;;;5.10;;
20076;SDS011;12348;42.710;23.378;2023-03-23T14:13:50;6.67;;;4.70;;
20076;SDS011;12348;42.710;23.378;2023-03-23T14:16:32;9.47;;;5.07;;
20076;SDS011;12348;42.710;23.378;2023-03-23T14:19:03;6.57;;;4.77;;
20076;SDS011;12348;42.710;23.378;2023-03-23T14:21:41;8.27;;;4.47;;
20076;SDS011;12348;42.710;23.378;2023-03-23T14:24:09;5.47;;;4.13;;
20076;SDS011;12348;42.710;23.378;2023-03-23T14:26:37;8.00;;;4.47;;
20076;SDS011;12348;42.710;23.378;2023-03-23T14:29:06;10.50;;;6.40;;
20076;SDS011;12348;42.710;23.378;2023-03-23T14:31:37;7.80;;;4.73;;
20076;SDS011;12348;42.710;23.378;2023-03-23T14:34:11;9.50;;;5.43;;
20076;SDS011;12348;42.710;23.378;2023-03-23T14:36:40;6.10;;;4.17;;
20076;SDS011;12348;42.710;23.378;2023-03-23T14:39:13;9.43;;;5.57;;
20076;SDS011;12348;42.710;23.378;2023-03-23T14:41:43;10.23;;;5.43;;